sensor_id;sensor_type;location;lat;lon;timestamp;temperature;humidity
16867;DHT22;8550;52.596;13.320;2023-03-01T00:03:57;-2.10;99.90
16867;DHT22;8550;52.596;13.320;2023-03-01T00:09:01;-1.80;99.90
16867;DHT22;8550;52.596;13.320;2023-03-01T00:14:06;-1.70;99.90
16867;DHT22;8550;52.596;13.320;2023-03-01T00:19:11;-1.80;99.90
16867;DHT22;8550;52.596;13.320;2023-03-01T00:24:18;-2.10;99.90
16867;DHT22;8550;52.596;13.320;2023-03-01T00:29:21;-1.90;99.90
16867;DHT22;8550;52.596;13.320;2023-03-01T00:34:23;-2.00;99.90
16867;DHT22;8550;52.596;13.320;2023-03-01T00:39:25;-2.10;99.90
16867;DHT22;8550;52.596;13.320;2023-03-01T00:44:28;-2.10;99.90
16867;DHT22;8550;52.596;13.320;2023-03-01T00:49:30;-2.20;99.90
16867;DHT22;8550;52.596;13.320;2023-03-01T00:54:33;-2.20;99.90
16867;DHT22;8550;52.596;13.320;2023-03-01T00:59:37;-2.20;99.90
16867;DHT22;8550;52.596;13.320;2023-03-01T01:04:39;-2.30;99.90
16867;DHT22;8550;52.596;13.320;2023-03-01T01:09:41;-2.30;99.90
16867;DHT22;8550;52.596;13.320;2023-03-01T01:14:44;-2.50;99.90
16867;DHT22;8550;52.596;13.320;2023-03-01T01:19:46;-2.50;99.90
16867;DHT22;8550;52.596;13.320;2023-03-01T01:24:48;-2.30;99.90
16867;DHT22;8550;52.596;13.320;2023-03-01T01:29:52;-2.60;99.90
16867;DHT22;8550;52.596;13.320;2023-03-01T01:34:54;-2.60;99.90
16867;DHT22;8550;52.596;13.320;2023-03-01T01:39:56;-2.60;99.90
16867;DHT22;8550;52.596;13.320;2023-03-01T01:45:29;-2.60;99.90
16867;DHT22;8550;52.596;13.320;2023-03-01T01:50:33;-2.60;99.90
16867;DHT22;8550;52.596;13.320;2023-03-01T01:55:41;-2.60;99.90
16867;DHT22;8550;52.596;13.320;2023-03-01T02:00:45;-2.70;99.90
16867;DHT22;8550;52.596;13.320;2023-03-01T02:05:51;-2.70;99.90
16867;DHT22;8550;52.596;13.320;2023-03-01T02:10:54;-2.80;99.90
16867;DHT22;8550;52.596;13.320;2023-03-01T02:15:59;-2.70;99.90
16867;DHT22;8550;52.596;13.320;2023-03-01T02:21:11;-2.80;99.90
16867;DHT22;8550;52.596;13.320;2023-03-01T02:26:20;-2.80;99.90
16867;DHT22;8550;52.596;13.320;2023-03-01T02:31:26;-2.90;99.90
16867;DHT22;8550;52.596;13.320;2023-03-01T02:36:47;-2.80;99.90
16867;DHT22;8550;52.596;13.320;2023-03-01T02:41:52;-2.70;99.90
16867;DHT22;8550;52.596;13.320;2023-03-01T02:46:57;-2.80;99.90
16867;DHT22;8550;52.596;13.320;2023-03-01T02:52:15;-2.80;99.90
16867;DHT22;8550;52.596;13.320;2023-03-01T02:57:20;-2.80;99.90
16867;DHT22;8550;52.596;13.320;2023-03-01T03:02:26;-2.80;99.90
16867;DHT22;8550;52.596;13.320;2023-03-01T03:07:39;-2.90;99.90
16867;DHT22;8550;52.596;13.320;2023-03-01T03:12:41;-2.80;99.90
16867;DHT22;8550;52.596;13.320;2023-03-01T03:17:44;-3.00;99.90
16867;DHT22;8550;52.596;13.320;2023-03-01T03:22:47;-2.90;99.90
16867;DHT22;8550;52.596;13.320;2023-03-01T03:27:51;-2.90;99.90
16867;DHT22;8550;52.596;13.320;2023-03-01T03:32:59;-3.00;99.90
16867;DHT22;8550;52.596;13.320;2023-03-01T03:38:05;-3.00;99.90
16867;DHT22;8550;52.596;13.320;2023-03-01T03:43:11;-3.10;99.90
16867;DHT22;8550;52.596;13.320;2023-03-01T03:48:15;-3.00;99.90
16867;DHT22;8550;52.596;13.320;2023-03-01T03:53:19;-3.00;99.90
16867;DHT22;8550;52.596;13.320;2023-03-01T03:58:23;-3.10;99.90
16867;DHT22;8550;52.596;13.320;2023-03-01T04:03:28;-3.40;99.90
16867;DHT22;8550;52.596;13.320;2023-03-01T04:08:30;-3.50;99.90
16867;DHT22;8550;52.596;13.320;2023-03-01T04:13:34;-3.60;99.90
16867;DHT22;8550;52.596;13.320;2023-03-01T04:18:38;-3.60;99.90
16867;DHT22;8550;52.596;13.320;2023-03-01T04:23:40;-3.50;99.90
16867;DHT22;8550;52.596;13.320;2023-03-01T04:28:43;-3.20;99.90
16867;DHT22;8550;52.596;13.320;2023-03-01T04:33:50;-3.50;99.90
16867;DHT22;8550;52.596;13.320;2023-03-01T04:38:53;-3.40;99.90
16867;DHT22;8550;52.596;13.320;2023-03-01T04:43:55;-3.40;99.90
16867;DHT22;8550;52.596;13.320;2023-03-01T04:48:58;-3.40;99.90
16867;DHT22;8550;52.596;13.320;2023-03-01T04:54:01;-3.30;99.90
16867;DHT22;8550;52.596;13.320;2023-03-01T04:59:04;-3.50;99.90
16867;DHT22;8550;52.596;13.320;2023-03-01T05:04:08;-3.60;99.90
16867;DHT22;8550;52.596;13.320;2023-03-01T05:09:14;-3.60;99.90
16867;DHT22;8550;52.596;13.320;2023-03-01T05:14:15;-3.70;99.90
16867;DHT22;8550;52.596;13.320;2023-03-01T05:19:19;-3.70;99.90
16867;DHT22;8550;52.596;13.320;2023-03-01T05:24:23;-3.50;99.90
16867;DHT22;8550;52.596;13.320;2023-03-01T05:29:28;-3.50;99.90
16867;DHT22;8550;52.596;13.320;2023-03-01T05:34:34;-3.50;99.90
16867;DHT22;8550;52.596;13.320;2023-03-01T05:39:37;-3.50;99.90
16867;DHT22;8550;52.596;13.320;2023-03-01T05:44:39;-3.70;99.90
16867;DHT22;8550;52.596;13.320;2023-03-01T05:49:44;-3.60;99.90
16867;DHT22;8550;52.596;13.320;2023-03-01T05:54:46;-3.80;99.90
16867;DHT22;8550;52.596;13.320;2023-03-01T05:59:48;-3.40;99.90
16867;DHT22;8550;52.596;13.320;2023-03-01T06:04:51;-3.70;99.90
16867;DHT22;8550;52.596;13.320;2023-03-01T06:09:53;-3.80;99.90
16867;DHT22;8550;52.596;13.320;2023-03-01T06:14:55;-3.80;99.90
16867;DHT22;8550;52.596;13.320;2023-03-01T06:19:59;-3.80;99.90
16867;DHT22;8550;52.596;13.320;2023-03-01T06:25:02;-3.80;99.90
16867;DHT22;8550;52.596;13.320;2023-03-01T06:30:05;-3.60;99.90
16867;DHT22;8550;52.596;13.320;2023-03-01T06:35:10;-3.40;99.90
16867;DHT22;8550;52.596;13.320;2023-03-01T06:40:12;-3.30;99.90
16867;DHT22;8550;52.596;13.320;2023-03-01T06:45:15;-3.20;99.90
16867;DHT22;8550;52.596;13.320;2023-03-01T06:50:33;-3.00;99.90
16867;DHT22;8550;52.596;13.320;2023-03-01T06:55:34;-3.00;99.90
16867;DHT22;8550;52.596;13.320;2023-03-01T07:00:42;-2.90;99.90
16867;DHT22;8550;52.596;13.320;2023-03-01T07:05:48;-2.80;99.90
16867;DHT22;8550;52.596;13.320;2023-03-01T07:10:55;-2.50;99.90
16867;DHT22;8550;52.596;13.320;2023-03-01T07:15:57;-2.20;99.90
16867;DHT22;8550;52.596;13.320;2023-03-01T07:21:05;-1.90;99.90
16867;DHT22;8550;52.596;13.320;2023-03-01T07:26:07;-1.60;99.90
16867;DHT22;8550;52.596;13.320;2023-03-01T07:31:10;-1.30;99.90
16867;DHT22;8550;52.596;13.320;2023-03-01T07:36:14;-1.00;99.90
16867;DHT22;8550;52.596;13.320;2023-03-01T07:41:16;-0.70;99.90
16867;DHT22;8550;52.596;13.320;2023-03-01T07:46:21;-0.50;99.90
16867;DHT22;8550;52.596;13.320;2023-03-01T07:51:24;-0.20;99.90
16867;DHT22;8550;52.596;13.320;2023-03-01T07:56:26;0.00;99.90
16867;DHT22;8550;52.596;13.320;2023-03-01T08:01:29;0.20;99.90
16867;DHT22;8550;52.596;13.320;2023-03-01T08:06:34;0.50;99.90
16867;DHT22;8550;52.596;13.320;2023-03-01T08:11:36;0.70;99.90
16867;DHT22;8550;52.596;13.320;2023-03-01T08:16:38;1.00;99.90
16867;DHT22;8550;52.596;13.320;2023-03-01T08:21:41;1.20;99.90
16867;DHT22;8550;52.596;13.320;2023-03-01T08:26:43;1.40;99.90
16867;DHT22;8550;52.596;13.320;2023-03-01T08:31:45;1.70;99.90
16867;DHT22;8550;52.596;13.320;2023-03-01T08:36:49;1.90;99.90
16867;DHT22;8550;52.596;13.320;2023-03-01T08:41:52;2.20;99.90
16867;DHT22;8550;52.596;13.320;2023-03-01T08:46:54;2.30;99.90
16867;DHT22;8550;52.596;13.320;2023-03-01T08:51:57;2.70;99.90
16867;DHT22;8550;52.596;13.320;2023-03-01T08:57:01;2.90;99.90
16867;DHT22;8550;52.596;13.320;2023-03-01T09:02:03;3.10;99.90
16867;DHT22;8550;52.596;13.320;2023-03-01T09:07:08;3.30;99.90
16867;DHT22;8550;52.596;13.320;2023-03-01T09:12:10;3.40;99.90
16867;DHT22;8550;52.596;13.320;2023-03-01T09:17:12;3.60;99.90
16867;DHT22;8550;52.596;13.320;2023-03-01T09:22:15;3.80;99.90
16867;DHT22;8550;52.596;13.320;2023-03-01T09:27:17;4.10;99.90
16867;DHT22;8550;52.596;13.320;2023-03-01T09:32:19;4.20;99.90
16867;DHT22;8550;52.596;13.320;2023-03-01T09:37:22;4.30;99.90
16867;DHT22;8550;52.596;13.320;2023-03-01T09:42:25;4.50;99.90
16867;DHT22;8550;52.596;13.320;2023-03-01T09:47:29;4.50;99.90
16867;DHT22;8550;52.596;13.320;2023-03-01T09:52:39;4.60;99.90
16867;DHT22;8550;52.596;13.320;2023-03-01T09:57:47;4.70;99.70
16867;DHT22;8550;52.596;13.320;2023-03-01T10:02:54;4.90;98.60
16867;DHT22;8550;52.596;13.320;2023-03-01T10:08:19;5.10;98.10
16867;DHT22;8550;52.596;13.320;2023-03-01T10:13:31;5.20;97.00
16867;DHT22;8550;52.596;13.320;2023-03-01T10:18:35;5.40;96.20
16867;DHT22;8550;52.596;13.320;2023-03-01T10:23:40;5.50;95.90
16867;DHT22;8550;52.596;13.320;2023-03-01T10:28:50;5.70;95.40
16867;DHT22;8550;52.596;13.320;2023-03-01T10:33:55;5.90;95.40
16867;DHT22;8550;52.596;13.320;2023-03-01T10:38:59;6.10;94.90
16867;DHT22;8550;52.596;13.320;2023-03-01T10:44:00;6.40;95.30
16867;DHT22;8550;52.596;13.320;2023-03-01T10:49:13;6.60;93.60
16867;DHT22;8550;52.596;13.320;2023-03-01T10:54:19;7.60;90.50
16867;DHT22;8550;52.596;13.320;2023-03-01T10:59:27;8.40;80.00
16867;DHT22;8550;52.596;13.320;2023-03-01T11:04:29;9.70;72.90
16867;DHT22;8550;52.596;13.320;2023-03-01T11:09:33;10.40;65.90
16867;DHT22;8550;52.596;13.320;2023-03-01T11:14:39;10.70;62.20
16867;DHT22;8550;52.596;13.320;2023-03-01T11:20:00;12.00;58.80
16867;DHT22;8550;52.596;13.320;2023-03-01T11:25:12;13.00;53.40
16867;DHT22;8550;52.596;13.320;2023-03-01T11:30:18;14.10;50.90
16867;DHT22;8550;52.596;13.320;2023-03-01T11:35:24;13.90;48.90
16867;DHT22;8550;52.596;13.320;2023-03-01T11:40:32;14.70;47.70
16867;DHT22;8550;52.596;13.320;2023-03-01T11:45:47;14.60;45.70
16867;DHT22;8550;52.596;13.320;2023-03-01T11:50:52;13.40;47.30
16867;DHT22;8550;52.596;13.320;2023-03-01T11:56:05;13.70;48.50
16867;DHT22;8550;52.596;13.320;2023-03-01T12:01:19;15.30;45.80
16867;DHT22;8550;52.596;13.320;2023-03-01T12:06:47;15.90;43.00
16867;DHT22;8550;52.596;13.320;2023-03-01T12:12:25;16.80;42.50
16867;DHT22;8550;52.596;13.320;2023-03-01T12:28:57;15.30;42.10
16867;DHT22;8550;52.596;13.320;2023-03-01T12:34:11;15.00;44.10
16867;DHT22;8550;52.596;13.320;2023-03-01T12:39:38;13.30;45.80
16867;DHT22;8550;52.596;13.320;2023-03-01T12:44:58;12.00;48.80
16867;DHT22;8550;52.596;13.320;2023-03-01T12:50:10;11.00;49.80
16867;DHT22;8550;52.596;13.320;2023-03-01T12:55:24;10.30;51.20
16867;DHT22;8550;52.596;13.320;2023-03-01T13:00:35;9.90;52.60
16867;DHT22;8550;52.596;13.320;2023-03-01T13:05:46;9.50;53.00
16867;DHT22;8550;52.596;13.320;2023-03-01T13:10:54;9.10;53.50
16867;DHT22;8550;52.596;13.320;2023-03-01T13:16:20;9.20;54.60
16867;DHT22;8550;52.596;13.320;2023-03-01T13:21:30;9.20;54.60
16867;DHT22;8550;52.596;13.320;2023-03-01T13:27:18;9.20;54.10
16867;DHT22;8550;52.596;13.320;2023-03-01T13:32:27;9.30;53.50
16867;DHT22;8550;52.596;13.320;2023-03-01T13:37:35;9.40;52.90
16867;DHT22;8550;52.596;13.320;2023-03-01T13:42:41;10.60;50.80
16867;DHT22;8550;52.596;13.320;2023-03-01T13:47:45;11.90;48.80
16867;DHT22;8550;52.596;13.320;2023-03-01T13:52:52;11.30;47.00
16867;DHT22;8550;52.596;13.320;2023-03-01T13:57:57;12.40;46.60
16867;DHT22;8550;52.596;13.320;2023-03-01T14:03:05;12.30;48.00
16867;DHT22;8550;52.596;13.320;2023-03-01T14:08:20;12.10;47.10
16867;DHT22;8550;52.596;13.320;2023-03-01T14:13:32;12.90;46.70
16867;DHT22;8550;52.596;13.320;2023-03-01T14:18:40;14.40;44.70
16867;DHT22;8550;52.596;13.320;2023-03-01T14:23:46;14.20;44.40
16867;DHT22;8550;52.596;13.320;2023-03-01T14:28:48;14.90;44.90
16867;DHT22;8550;52.596;13.320;2023-03-01T14:33:56;16.00;44.10
16867;DHT22;8550;52.596;13.320;2023-03-01T14:38:58;16.20;42.80
16867;DHT22;8550;52.596;13.320;2023-03-01T14:44:07;16.90;41.80
16867;DHT22;8550;52.596;13.320;2023-03-01T14:49:17;16.80;39.70
16867;DHT22;8550;52.596;13.320;2023-03-01T14:54:24;17.90;39.40
16867;DHT22;8550;52.596;13.320;2023-03-01T14:59:27;17.80;38.90
16867;DHT22;8550;52.596;13.320;2023-03-01T15:04:30;17.80;40.50
16867;DHT22;8550;52.596;13.320;2023-03-01T15:09:36;18.00;40.30
16867;DHT22;8550;52.596;13.320;2023-03-01T15:14:40;17.70;39.90
16867;DHT22;8550;52.596;13.320;2023-03-01T15:19:45;17.30;41.70
16867;DHT22;8550;52.596;13.320;2023-03-01T15:24:48;16.30;42.00
16867;DHT22;8550;52.596;13.320;2023-03-01T15:29:54;16.20;44.00
16867;DHT22;8550;52.596;13.320;2023-03-01T15:34:58;15.60;45.40
16867;DHT22;8550;52.596;13.320;2023-03-01T15:40:01;15.00;46.50
16867;DHT22;8550;52.596;13.320;2023-03-01T15:45:09;16.20;45.90
16867;DHT22;8550;52.596;13.320;2023-03-01T15:50:18;15.50;46.00
16867;DHT22;8550;52.596;13.320;2023-03-01T15:55:22;14.90;46.40
16867;DHT22;8550;52.596;13.320;2023-03-01T16:00:24;14.50;47.00
16867;DHT22;8550;52.596;13.320;2023-03-01T16:05:29;12.70;51.50
16867;DHT22;8550;52.596;13.320;2023-03-01T16:10:32;11.20;55.40
16867;DHT22;8550;52.596;13.320;2023-03-01T16:15:35;10.30;57.60
16867;DHT22;8550;52.596;13.320;2023-03-01T16:20:40;9.70;60.00
16867;DHT22;8550;52.596;13.320;2023-03-01T16:25:42;9.10;62.50
16867;DHT22;8550;52.596;13.320;2023-03-01T16:30:46;8.70;64.60
16867;DHT22;8550;52.596;13.320;2023-03-01T16:35:51;8.20;67.40
16867;DHT22;8550;52.596;13.320;2023-03-01T16:40:52;7.90;69.60
16867;DHT22;8550;52.596;13.320;2023-03-01T16:45:54;7.50;73.30
16867;DHT22;8550;52.596;13.320;2023-03-01T16:50:59;7.10;76.70
16867;DHT22;8550;52.596;13.320;2023-03-01T16:56:04;6.70;80.10
16867;DHT22;8550;52.596;13.320;2023-03-01T17:01:13;6.40;84.00
16867;DHT22;8550;52.596;13.320;2023-03-01T17:06:19;6.20;90.60
16867;DHT22;8550;52.596;13.320;2023-03-01T17:11:22;5.80;91.30
16867;DHT22;8550;52.596;13.320;2023-03-01T17:16:24;5.60;93.20
16867;DHT22;8550;52.596;13.320;2023-03-01T17:21:28;5.30;95.30
16867;DHT22;8550;52.596;13.320;2023-03-01T17:26:31;5.10;96.60
16867;DHT22;8550;52.596;13.320;2023-03-01T17:31:33;4.90;98.40
16867;DHT22;8550;52.596;13.320;2023-03-01T17:36:36;4.70;99.90
16867;DHT22;8550;52.596;13.320;2023-03-01T17:41:43;4.50;99.90
16867;DHT22;8550;52.596;13.320;2023-03-01T17:46:45;4.30;99.90
16867;DHT22;8550;52.596;13.320;2023-03-01T17:51:48;4.20;99.90
16867;DHT22;8550;52.596;13.320;2023-03-01T17:56:51;4.10;99.90
16867;DHT22;8550;52.596;13.320;2023-03-01T18:01:53;3.90;99.90
16867;DHT22;8550;52.596;13.320;2023-03-01T18:06:56;3.70;99.90
16867;DHT22;8550;52.596;13.320;2023-03-01T18:11:58;3.60;99.90
16867;DHT22;8550;52.596;13.320;2023-03-01T18:17:00;3.60;99.90
16867;DHT22;8550;52.596;13.320;2023-03-01T18:22:07;3.50;99.90
16867;DHT22;8550;52.596;13.320;2023-03-01T18:27:10;3.40;99.90
16867;DHT22;8550;52.596;13.320;2023-03-01T18:32:12;3.20;99.90
16867;DHT22;8550;52.596;13.320;2023-03-01T18:37:16;3.00;99.90
16867;DHT22;8550;52.596;13.320;2023-03-01T18:42:18;3.00;99.90
16867;DHT22;8550;52.596;13.320;2023-03-01T18:47:21;2.90;99.90
16867;DHT22;8550;52.596;13.320;2023-03-01T18:52:24;2.80;99.90
16867;DHT22;8550;52.596;13.320;2023-03-01T18:57:27;2.70;99.90
16867;DHT22;8550;52.596;13.320;2023-03-01T19:02:29;2.60;99.90
16867;DHT22;8550;52.596;13.320;2023-03-01T19:07:33;2.50;99.90
16867;DHT22;8550;52.596;13.320;2023-03-01T19:12:35;2.40;99.90
16867;DHT22;8550;52.596;13.320;2023-03-01T19:17:37;2.30;99.90
16867;DHT22;8550;52.596;13.320;2023-03-01T19:22:40;2.20;99.90
16867;DHT22;8550;52.596;13.320;2023-03-01T19:27:42;2.20;99.90
16867;DHT22;8550;52.596;13.320;2023-03-01T19:32:44;2.10;99.90
16867;DHT22;8550;52.596;13.320;2023-03-01T19:37:48;1.90;99.90
16867;DHT22;8550;52.596;13.320;2023-03-01T19:42:50;1.80;99.90
16867;DHT22;8550;52.596;13.320;2023-03-01T19:47:53;1.70;99.90
16867;DHT22;8550;52.596;13.320;2023-03-01T19:52:56;1.60;99.90
16867;DHT22;8550;52.596;13.320;2023-03-01T19:57:58;1.60;99.90
16867;DHT22;8550;52.596;13.320;2023-03-01T20:03:00;1.60;99.90
16867;DHT22;8550;52.596;13.320;2023-03-01T20:08:04;1.60;99.90
16867;DHT22;8550;52.596;13.320;2023-03-01T20:13:06;1.50;99.90
16867;DHT22;8550;52.596;13.320;2023-03-01T20:18:08;1.40;99.90
16867;DHT22;8550;52.596;13.320;2023-03-01T20:23:12;1.30;99.90
16867;DHT22;8550;52.596;13.320;2023-03-01T20:28:14;1.30;99.90
16867;DHT22;8550;52.596;13.320;2023-03-01T20:33:16;1.20;99.90
16867;DHT22;8550;52.596;13.320;2023-03-01T20:38:19;1.20;99.90
16867;DHT22;8550;52.596;13.320;2023-03-01T20:43:22;1.20;99.90
16867;DHT22;8550;52.596;13.320;2023-03-01T20:48:24;1.10;99.90
16867;DHT22;8550;52.596;13.320;2023-03-01T20:53:28;1.10;99.90
16867;DHT22;8550;52.596;13.320;2023-03-01T20:58:30;1.00;99.90
16867;DHT22;8550;52.596;13.320;2023-03-01T21:03:34;1.00;99.90
16867;DHT22;8550;52.596;13.320;2023-03-01T21:08:38;0.90;99.90
16867;DHT22;8550;52.596;13.320;2023-03-01T21:13:39;0.70;99.90
16867;DHT22;8550;52.596;13.320;2023-03-01T21:18:44;0.60;99.90
16867;DHT22;8550;52.596;13.320;2023-03-01T21:23:47;0.60;99.90
16867;DHT22;8550;52.596;13.320;2023-03-01T21:28:53;0.60;99.90
16867;DHT22;8550;52.596;13.320;2023-03-01T21:33:57;0.40;99.90
16867;DHT22;8550;52.596;13.320;2023-03-01T21:39:01;0.40;99.90
16867;DHT22;8550;52.596;13.320;2023-03-01T21:44:04;0.40;99.90
16867;DHT22;8550;52.596;13.320;2023-03-01T21:49:08;0.40;99.90
16867;DHT22;8550;52.596;13.320;2023-03-01T21:54:14;0.50;99.90
16867;DHT22;8550;52.596;13.320;2023-03-01T21:59:17;0.40;99.90
16867;DHT22;8550;52.596;13.320;2023-03-01T22:04:20;0.50;99.90
16867;DHT22;8550;52.596;13.320;2023-03-01T22:09:23;0.30;99.90
16867;DHT22;8550;52.596;13.320;2023-03-01T22:14:25;0.40;99.90
16867;DHT22;8550;52.596;13.320;2023-03-01T22:19:27;0.20;99.90
16867;DHT22;8550;52.596;13.320;2023-03-01T22:24:31;0.20;99.90
16867;DHT22;8550;52.596;13.320;2023-03-01T22:29:33;0.30;99.90
16867;DHT22;8550;52.596;13.320;2023-03-01T22:34:35;0.20;99.90
16867;DHT22;8550;52.596;13.320;2023-03-01T22:39:38;0.20;99.90
16867;DHT22;8550;52.596;13.320;2023-03-01T22:44:40;0.10;99.90
16867;DHT22;8550;52.596;13.320;2023-03-01T22:49:42;0.00;99.90
16867;DHT22;8550;52.596;13.320;2023-03-01T22:54:45;0.10;99.90
16867;DHT22;8550;52.596;13.320;2023-03-01T22:59:47;0.00;99.90
16867;DHT22;8550;52.596;13.320;2023-03-01T23:04:49;0.00;99.90
16867;DHT22;8550;52.596;13.320;2023-03-01T23:09:52;0.00;99.90
16867;DHT22;8550;52.596;13.320;2023-03-01T23:14:54;0.00;99.90
16867;DHT22;8550;52.596;13.320;2023-03-01T23:19:56;-0.10;99.90
16867;DHT22;8550;52.596;13.320;2023-03-01T23:24:59;-0.30;99.90
16867;DHT22;8550;52.596;13.320;2023-03-01T23:30:02;-0.30;99.90
16867;DHT22;8550;52.596;13.320;2023-03-01T23:35:05;-0.40;99.90
16867;DHT22;8550;52.596;13.320;2023-03-01T23:40:10;-0.30;99.90
16867;DHT22;8550;52.596;13.320;2023-03-01T23:45:13;-0.30;99.90
16867;DHT22;8550;52.596;13.320;2023-03-01T23:50:15;-0.30;99.90
16867;DHT22;8550;52.596;13.320;2023-03-01T23:55:18;-0.40;99.90
